Time;durP1;ratioP1;P1;durP2;ratioP2;P2;SDS_P1;SDS_P2;PMS_P1;PMS_P2;Temp;Humidity;BMP_temperature;BMP_pressure;BME280_temperature;BME280_humidity;BME280_pressure;Samples;Min_cycle;Max_cycle;Signal;HPM_P1;HPM_P2
2023/08/23 00:01:18;;;;;;;;;;;;;;;27.96;44.84;102034.94;5026446;28;19944;-65
2023/08/23 00:03:45;;;;;;;;;;;;;;;27.94;44.79;102037.81;4998590;28;19933;-67
2023/08/23 00:06:10;;;;;;;;;;;;;;;27.92;44.77;102037.19;5022559;28;19967;-66
2023/08/23 00:08:35;;;;;;;;;;;;;;;27.93;44.95;102040.69;4960623;28;20058;-66
2023/08/23 00:11:01;;;;;;;;;;;;;;;27.94;44.93;102055.72;5013991;28;20024;-66
2023/08/23 00:13:26;;;;;;;;;;;;;;;27.93;44.54;102054.91;4999757;28;19996;-66
2023/08/23 00:15:51;;;;;;;;;;;;;;;27.89;44.83;102059.03;5013934;28;20311;-66
2023/08/23 00:18:17;;;;;;;;;;;;;;;27.88;44.93;102057.38;4958907;28;19945;-66
2023/08/23 00:20:42;;;;;;;;;;;;;;;27.90;44.88;102055.31;5018965;28;19941;-66
2023/08/23 00:23:08;;;;;;;;;;;;;;;27.88;44.86;102057.38;4963926;28;19939;-66
2023/08/23 00:25:33;;;;;;;;;;;;;;;27.89;44.82;102056.34;5006391;28;19941;-67
2023/08/23 00:27:58;;;;;;;;;;;;;;;27.90;44.81;102058.00;4958616;28;19973;-65
2023/08/23 00:30:24;;;;;;;;;;;;;;;27.91;44.84;102053.47;5011791;28;20570;-65
2023/08/23 00:32:49;;;;;;;;;;;;;;;27.90;44.81;102054.50;5004617;28;19947;-66
2023/08/23 00:35:15;;;;;;;;;;;;;;;27.90;44.65;102057.19;5015029;28;19941;-66
2023/08/23 00:37:40;;;;;;;;;;;;;;;27.86;44.65;102066.66;4959522;28;19949;-71
2023/08/23 00:40:07;;;;;;;;;;;;;;;27.87;44.82;102066.44;5015071;28;19939;-69
2023/08/23 00:42:33;;;;;;;;;;;;;;;27.89;44.55;102060.88;4968957;28;19987;-65
2023/08/23 00:44:58;;;;;;;;;;;;;;;27.87;44.65;102055.75;5010418;28;19937;-65
2023/08/23 00:47:24;;;;;;;;;;;;;;;27.87;45.02;102057.59;4990775;28;19960;-65
2023/08/23 00:49:49;;;;;;;;;;;;;;;27.87;44.78;102058.41;5016763;28;19945;-65
2023/08/23 00:52:15;;;;;;;;;;;;;;;27.85;44.91;102060.47;4969320;28;20004;-71
2023/08/23 00:54:41;;;;;;;;;;;;;;;27.86;45.00;102059.44;5016984;28;20423;-71
2023/08/23 00:57:08;;;;;;;;;;;;;;;27.84;44.94;102052.66;5002671;28;19938;-71
2023/08/23 00:59:35;;;;;;;;;;;;;;;27.82;45.07;102049.31;5018377;28;19954;-71
2023/08/23 01:02:01;;;;;;;;;;;;;;;27.84;44.66;102045.44;4962922;28;19945;-66
2023/08/23 01:04:26;;;;;;;;;;;;;;;27.83;44.87;102041.13;5013241;28;19942;-66
2023/08/23 01:06:56;;;;;;;;;;;;;;;27.81;44.62;102031.63;4961715;28;21869;-72
2023/08/23 01:09:31;;;;;;;;;;;;;;;27.81;44.91;102036.97;5011146;28;19941;-72
2023/08/23 01:12:11;;;;;;;;;;;;;;;27.84;44.76;102034.75;4993760;28;20393;-71
2023/08/23 01:14:42;;;;;;;;;;;;;;;27.83;44.74;102037.59;5021247;28;19969;-70
2023/08/23 01:17:08;;;;;;;;;;;;;;;27.82;44.82;102039.44;4988331;28;19947;-70
2023/08/23 01:19:40;;;;;;;;;;;;;;;27.82;44.78;102036.78;5018078;28;19950;-67
2023/08/23 01:22:06;;;;;;;;;;;;;;;27.80;44.92;102041.50;5024101;28;19969;-67
2023/08/23 01:24:32;;;;;;;;;;;;;;;27.79;44.81;102037.19;4959901;28;19942;-67
2023/08/23 01:26:58;;;;;;;;;;;;;;;27.80;44.79;102038.00;5026076;28;19965;-67
2023/08/23 01:29:23;;;;;;;;;;;;;;;27.78;44.74;102050.78;4980593;28;20742;-67
2023/08/23 01:31:53;;;;;;;;;;;;;;;27.77;44.98;102055.28;5017548;28;19947;-66
2023/08/23 01:34:29;;;;;;;;;;;;;;;27.81;44.86;102047.69;4959653;28;19958;-67
2023/08/23 01:36:56;;;;;;;;;;;;;;;27.78;44.80;102040.88;5022097;28;20295;-67
2023/08/23 01:39:24;;;;;;;;;;;;;;;27.75;44.82;102043.16;4996836;28;20092;-66
2023/08/23 01:41:50;;;;;;;;;;;;;;;27.80;44.55;102028.13;5004544;28;19947;-66
2023/08/23 01:44:15;;;;;;;;;;;;;;;27.79;44.63;102037.19;5012077;28;19935;-66
2023/08/23 01:46:40;;;;;;;;;;;;;;;27.77;44.55;102033.06;4970300;28;20344;-66
2023/08/23 01:49:06;;;;;;;;;;;;;;;27.74;44.83;102031.63;5012315;28;19943;-67
2023/08/23 01:51:31;;;;;;;;;;;;;;;27.58;44.67;102011.38;4965623;28;19942;-65
2023/08/23 01:53:57;;;;;;;;;;;;;;;27.75;44.66;102030.59;5008347;28;19940;-65
2023/08/23 01:56:22;;;;;;;;;;;;;;;27.74;44.67;102028.94;4972412;28;19950;-70
2023/08/23 01:58:47;;;;;;;;;;;;;;;27.76;44.57;102026.88;4996733;28;19957;-66
2023/08/23 02:01:13;;;;;;;;;;;;;;;27.73;44.62;102027.31;5008896;28;20389;-66
2023/08/23 02:03:38;;;;;;;;;;;;;;;27.74;44.67;102028.13;4960534;28;20595;-70
2023/08/23 02:06:04;;;;;;;;;;;;;;;27.74;44.76;102023.59;5018224;28;20034;-72
2023/08/23 02:08:31;;;;;;;;;;;;;;;27.75;44.59;102024.41;4966081;28;19960;-70
2023/08/23 02:10:57;;;;;;;;;;;;;;;27.75;44.46;102019.06;5045560;28;19947;-71
2023/08/23 02:13:22;;;;;;;;;;;;;;;27.57;44.49;101996.38;5006183;28;19937;-70
2023/08/23 02:15:51;;;;;;;;;;;;;;;27.71;44.76;102026.69;4988871;28;19950;-70
2023/08/23 02:18:17;;;;;;;;;;;;;;;27.71;44.29;102029.34;5008081;28;20002;-70
2023/08/23 02:20:42;;;;;;;;;;;;;;;27.72;44.41;102027.50;5019480;28;20007;-70
2023/08/23 02:23:08;;;;;;;;;;;;;;;27.71;44.33;102028.53;4971340;28;19999;-66
2023/08/23 02:25:33;;;;;;;;;;;;;;;27.69;44.55;102023.38;5018178;28;20023;-66
2023/08/23 02:27:59;;;;;;;;;;;;;;;27.66;44.60;102024.63;4964637;28;19977;-73
2023/08/23 02:30:24;;;;;;;;;;;;;;;27.66;44.47;102019.28;5010117;28;19940;-73
2023/08/23 02:32:49;;;;;;;;;;;;;;;27.68;44.59;102019.88;4968594;28;19952;-67
2023/08/23 02:35:15;;;;;;;;;;;;;;;27.67;44.56;102014.75;5008558;28;20046;-67
2023/08/23 02:37:42;;;;;;;;;;;;;;;27.68;44.21;102017.22;4965542;28;20032;-66
2023/08/23 02:40:08;;;;;;;;;;;;;;;27.66;44.30;102016.59;4997205;28;20413;-66
2023/08/23 02:42:33;;;;;;;;;;;;;;;27.69;44.21;102010.00;5050006;28;19940;-66
2023/08/23 02:44:58;;;;;;;;;;;;;;;27.64;44.39;102010.59;4961020;28;19942;-67
2023/08/23 02:47:24;;;;;;;;;;;;;;;27.65;44.36;102014.94;5013472;28;19996;-66
2023/08/23 02:49:49;;;;;;;;;;;;;;;27.65;44.33;102009.59;4963247;28;20398;-66
2023/08/23 02:52:14;;;;;;;;;;;;;;;27.66;44.37;102005.91;5018025;28;19933;-66
2023/08/23 02:54:40;;;;;;;;;;;;;;;27.64;44.09;101999.88;4960092;28;20458;-65
2023/08/23 02:57:12;;;;;;;;;;;;;;;27.47;44.21;101982.56;5012055;28;19933;-66
2023/08/23 02:59:38;;;;;;;;;;;;;;;27.63;44.20;102000.09;5031900;28;19941;-66
2023/08/23 03:02:03;;;;;;;;;;;;;;;27.64;44.27;102009.78;5016599;28;20743;-66
2023/08/23 03:04:28;;;;;;;;;;;;;;;27.64;44.26;102013.28;4962587;28;20331;-71
2023/08/23 03:06:54;;;;;;;;;;;;;;;27.62;44.04;102012.63;5038134;28;19988;-72
2023/08/23 03:09:19;;;;;;;;;;;;;;;27.65;44.16;102014.13;4962332;28;20689;-71
2023/08/23 03:11:44;;;;;;;;;;;;;;;27.62;44.45;102015.31;5019356;28;20035;-72
2023/08/23 03:14:10;;;;;;;;;;;;;;;27.63;44.30;102010.81;4977088;28;20351;-65
2023/08/23 03:16:35;;;;;;;;;;;;;;;27.61;44.09;102007.47;5003438;28;19960;-65
2023/08/23 03:19:00;;;;;;;;;;;;;;;27.60;44.09;102005.84;5019570;28;19984;-65
2023/08/23 03:21:31;;;;;;;;;;;;;;;27.59;44.02;102017.56;4992555;28;20504;-65
2023/08/23 03:23:57;;;;;;;;;;;;;;;27.59;44.33;102009.53;5018706;28;20332;-65
2023/08/23 03:26:24;;;;;;;;;;;;;;;27.43;44.11;101981.31;5042749;28;19964;-72
2023/08/23 03:28:51;;;;;;;;;;;;;;;27.59;43.93;102010.34;4996643;28;20036;-66
2023/08/23 03:31:18;;;;;;;;;;;;;;;27.45;44.24;101984.59;5001413;28;20429;-67
2023/08/23 03:33:47;;;;;;;;;;;;;;;27.58;44.21;102003.38;4990449;28;20466;-71
2023/08/23 03:36:13;;;;;;;;;;;;;;;27.57;43.96;102006.25;4998464;28;20008;-66
2023/08/23 03:38:38;;;;;;;;;;;;;;;27.54;44.12;102001.31;5022830;28;20044;-66
2023/08/23 03:41:11;;;;;;;;;;;;;;;27.53;44.11;102008.50;4964103;28;20042;-66
2023/08/23 03:43:38;;;;;;;;;;;;;;;27.55;44.19;102005.63;5019653;28;20651;-66
2023/08/23 03:46:03;;;;;;;;;;;;;;;27.57;44.00;102003.56;4950252;28;19948;-70
2023/08/23 03:48:29;;;;;;;;;;;;;;;27.52;43.85;102001.50;5018786;28;19964;-71
2023/08/23 03:50:59;;;;;;;;;;;;;;;27.57;44.16;101996.38;4996938;28;19951;-66
2023/08/23 03:53:26;;;;;;;;;;;;;;;27.55;43.93;102001.09;5009746;28;19935;-67
2023/08/23 03:55:52;;;;;;;;;;;;;;;27.54;43.90;101995.94;4958389;28;20447;-66
2023/08/23 03:58:17;;;;;;;;;;;;;;;27.54;43.89;101996.78;5014559;28;20060;-67
2023/08/23 04:00:47;;;;;;;;;;;;;;;27.51;44.03;101993.69;5003216;28;19958;-67
2023/08/23 04:03:13;;;;;;;;;;;;;;;27.52;43.99;101992.66;5015012;28;19940;-67
2023/08/23 04:05:39;;;;;;;;;;;;;;;27.52;44.19;101995.34;4961575;28;20045;-67
2023/08/23 04:08:06;;;;;;;;;;;;;;;27.48;44.29;101994.09;5012720;28;19987;-68
2023/08/23 04:10:32;;;;;;;;;;;;;;;27.50;43.99;102000.06;4961944;28;19950;-67
2023/08/23 04:12:57;;;;;;;;;;;;;;;27.48;44.23;102000.28;5008761;28;20458;-67
2023/08/23 04:15:23;;;;;;;;;;;;;;;27.50;43.98;101998.22;4957019;28;19967;-68
2023/08/23 04:17:48;;;;;;;;;;;;;;;27.47;43.78;101995.94;5021300;28;19977;-67
2023/08/23 04:20:14;;;;;;;;;;;;;;;27.48;43.87;101994.94;4985842;28;20395;-72
2023/08/23 04:22:40;;;;;;;;;;;;;;;27.48;44.04;101992.25;5018903;28;20477;-72
2023/08/23 04:25:06;;;;;;;;;;;;;;;27.49;43.92;101996.56;5000464;28;20624;-72
2023/08/23 04:27:31;;;;;;;;;;;;;;;27.48;43.98;101992.25;5019209;28;20500;-71
2023/08/23 04:29:57;;;;;;;;;;;;;;;27.45;43.88;101986.44;4958859;28;19944;-69
2023/08/23 04:32:22;;;;;;;;;;;;;;;27.46;43.94;101993.44;5014419;28;19939;-71
2023/08/23 04:34:48;;;;;;;;;;;;;;;27.47;44.26;101993.28;4957520;28;19940;-70
2023/08/23 04:37:14;;;;;;;;;;;;;;;27.44;43.86;101992.84;5014779;28;20388;-70
2023/08/23 04:39:39;;;;;;;;;;;;;;;27.44;44.03;101995.50;4962281;28;20022;-71
2023/08/23 04:42:05;;;;;;;;;;;;;;;27.43;44.02;101997.34;5011201;28;19984;-71
2023/08/23 04:44:30;;;;;;;;;;;;;;;27.44;44.18;101998.19;4963944;28;19945;-66
2023/08/23 04:47:00;;;;;;;;;;;;;;;27.43;44.10;102005.38;5019793;28;20512;-66
2023/08/23 04:49:27;;;;;;;;;;;;;;;27.41;44.31;101994.06;5031116;28;19945;-67
2023/08/23 04:51:53;;;;;;;;;;;;;;;27.45;43.96;102007.84;5009547;28;19945;-67
2023/08/23 04:54:18;;;;;;;;;;;;;;;27.43;43.98;102007.25;4964166;28;19952;-73
2023/08/23 04:56:44;;;;;;;;;;;;;;;27.42;43.82;102011.75;5008988;28;19940;-72
2023/08/23 04:59:09;;;;;;;;;;;;;;;27.42;43.94;102010.94;4957583;28;19994;-73
2023/08/23 05:01:35;;;;;;;;;;;;;;;27.43;44.19;102020.59;5013889;28;19941;-73
2023/08/23 05:04:00;;;;;;;;;;;;;;;27.36;44.12;102018.75;4993760;28;19946;-73
2023/08/23 05:06:25;;;;;;;;;;;;;;;27.42;43.92;102017.09;5016025;28;19951;-72
2023/08/23 05:08:52;;;;;;;;;;;;;;;27.42;43.87;102010.94;5014080;28;19965;-65
2023/08/23 05:11:22;;;;;;;;;;;;;;;27.41;44.04;102010.13;5012246;28;20538;-66
2023/08/23 05:13:48;;;;;;;;;;;;;;;27.38;43.94;102007.84;4965803;28;19969;-66
2023/08/23 05:16:14;;;;;;;;;;;;;;;27.37;44.05;102004.34;5011708;28;19935;-66
2023/08/23 05:18:40;;;;;;;;;;;;;;;27.40;43.88;102011.16;4961313;28;19947;-66
2023/08/23 05:21:08;;;;;;;;;;;;;;;27.36;44.34;102002.72;5014446;28;19942;-65
2023/08/23 05:23:33;;;;;;;;;;;;;;;27.39;43.98;102004.97;4971776;28;19951;-65
2023/08/23 05:25:59;;;;;;;;;;;;;;;27.38;44.20;102002.50;5024482;28;20357;-66
2023/08/23 05:28:25;;;;;;;;;;;;;;;27.42;44.15;102016.28;5006369;28;20016;-66
2023/08/23 05:30:50;;;;;;;;;;;;;;;27.41;44.10;102004.75;5018755;28;20373;-66
2023/08/23 05:33:18;;;;;;;;;;;;;;;27.39;44.03;102002.28;4969215;28;20001;-67
2023/08/23 05:35:45;;;;;;;;;;;;;;;27.42;43.91;102009.09;5014307;28;20035;-66
2023/08/23 05:38:11;;;;;;;;;;;;;;;27.39;44.11;102007.66;4956253;28;19952;-67
2023/08/23 05:40:37;;;;;;;;;;;;;;;27.44;43.93;102006.22;5015938;28;19998;-66
2023/08/23 05:43:03;;;;;;;;;;;;;;;27.40;43.77;102011.97;4977257;28;20468;-65
2023/08/23 05:45:28;;;;;;;;;;;;;;;27.36;44.25;102005.38;5018072;28;19952;-65
2023/08/23 05:47:54;;;;;;;;;;;;;;;27.35;44.26;102003.72;4953731;28;20448;-65
2023/08/23 05:50:20;;;;;;;;;;;;;;;27.38;44.26;102002.50;5018955;28;20267;-65
2023/08/23 05:52:46;;;;;;;;;;;;;;;27.39;44.25;102004.16;5001128;28;19942;-65
2023/08/23 05:55:11;;;;;;;;;;;;;;;27.39;43.91;102006.81;5011417;28;19945;-65
2023/08/23 05:57:37;;;;;;;;;;;;;;;27.39;44.19;102013.00;4956848;28;20426;-65
2023/08/23 06:00:03;;;;;;;;;;;;;;;27.35;44.07;102009.09;5021426;28;19957;-64
2023/08/23 06:02:38;;;;;;;;;;;;;;;27.37;44.09;102019.56;4957886;28;19990;-65
2023/08/23 06:05:03;;;;;;;;;;;;;;;27.35;44.33;102019.78;5012209;28;20007;-65
2023/08/23 06:07:29;;;;;;;;;;;;;;;27.38;44.19;102021.22;4955590;28;20054;-65
2023/08/23 06:09:54;;;;;;;;;;;;;;;27.36;44.12;102013.41;5015265;28;19943;-65
2023/08/23 06:12:19;;;;;;;;;;;;;;;27.36;44.05;102009.91;4998201;28;19944;-66
2023/08/23 06:14:45;;;;;;;;;;;;;;;27.39;44.10;102015.66;5016181;28;19938;-66
2023/08/23 06:17:10;;;;;;;;;;;;;;;27.39;43.99;102014.84;4967055;28;19947;-67
2023/08/23 06:19:36;;;;;;;;;;;;;;;27.36;44.13;102013.41;5022201;28;20083;-66
2023/08/23 06:22:01;;;;;;;;;;;;;;;27.38;44.36;102018.56;4961300;28;20025;-67
2023/08/23 06:24:27;;;;;;;;;;;;;;;27.35;44.16;102016.28;5018003;28;20032;-66
2023/08/23 06:26:53;;;;;;;;;;;;;;;27.36;44.11;102010.72;4966433;28;19967;-71
2023/08/23 06:29:19;;;;;;;;;;;;;;;27.38;44.10;102018.56;5002445;28;20285;-72
2023/08/23 06:31:44;;;;;;;;;;;;;;;27.40;44.05;102016.50;5019673;28;19946;-71
2023/08/23 06:34:09;;;;;;;;;;;;;;;27.42;44.32;102013.63;5015071;28;20038;-72
2023/08/23 06:36:35;;;;;;;;;;;;;;;27.39;44.02;102012.16;4965743;28;19959;-66
2023/08/23 06:39:00;;;;;;;;;;;;;;;27.41;44.36;102010.13;5036139;28;19937;-66
2023/08/23 06:41:26;;;;;;;;;;;;;;;27.42;43.95;102019.78;4957362;28;20446;-66
2023/08/23 06:43:57;;;;;;;;;;;;;;;27.43;44.32;102012.59;5022925;28;19945;-65
2023/08/23 06:46:23;;;;;;;;;;;;;;;27.45;44.18;102019.38;4955601;28;19949;-69
2023/08/23 06:48:48;;;;;;;;;;;;;;;27.44;44.15;102020.41;5029425;28;20023;-69
2023/08/23 06:51:18;;;;;;;;;;;;;;;27.26;44.35;101991.56;5027088;28;20001;-71
2023/08/23 06:53:51;;;;;;;;;;;;;;;27.46;44.42;102012.19;4978720;28;19978;-71
2023/08/23 06:56:20;;;;;;;;;;;;;;;27.45;44.31;102007.84;5014296;28;20400;-68
2023/08/23 06:58:49;;;;;;;;;;;;;;;27.44;44.34;102012.38;4970001;28;19942;-69
2023/08/23 07:01:17;;;;;;;;;;;;;;;27.46;44.33;102021.03;5011804;28;19943;-70
2023/08/23 07:03:44;;;;;;;;;;;;;;;27.50;44.45;102018.78;4976769;28;19948;-65
2023/08/23 07:06:14;;;;;;;;;;;;;;;27.48;44.37;102015.50;5049054;28;19942;-65
2023/08/23 07:08:42;;;;;;;;;;;;;;;27.50;44.32;102018.78;4960071;28;20048;-65
2023/08/23 07:11:11;;;;;;;;;;;;;;;27.36;44.50;101996.53;5006812;28;19981;-65
2023/08/23 07:13:39;;;;;;;;;;;;;;;27.51;44.47;102028.47;5014169;28;19973;-65
2023/08/23 07:16:04;;;;;;;;;;;;;;;27.53;44.25;102021.06;5013106;28;19932;-65
2023/08/23 07:18:30;;;;;;;;;;;;;;;27.52;44.40;102022.91;4965143;28;19951;-66
2023/08/23 07:20:55;;;;;;;;;;;;;;;27.55;44.24;102032.38;5050410;28;19938;-65
2023/08/23 07:23:21;;;;;;;;;;;;;;;27.54;44.38;102028.88;4957882;28;19968;-70
2023/08/23 07:25:46;;;;;;;;;;;;;;;27.56;44.48;102034.03;5018797;28;19991;-71
2023/08/23 07:28:11;;;;;;;;;;;;;;;27.54;44.66;102036.09;4956585;28;19963;-71
2023/08/23 07:30:37;;;;;;;;;;;;;;;27.40;44.37;102006.63;4998862;28;19957;-72
2023/08/23 07:33:03;;;;;;;;;;;;;;;27.57;44.31;102031.16;5019551;28;19994;-71
2023/08/23 07:35:32;;;;;;;;;;;;;;;27.43;44.58;102008.06;4995651;28;19995;-71
2023/08/23 07:37:59;;;;;;;;;;;;;;;27.59;44.29;102029.09;5002009;28;19993;-72
2023/08/23 07:40:30;;;;;;;;;;;;;;;27.61;44.56;102034.22;4991320;28;19940;-65
2023/08/23 07:42:59;;;;;;;;;;;;;;;27.61;44.52;102035.06;4995563;28;19992;-67
2023/08/23 07:45:24;;;;;;;;;;;;;;;27.60;44.33;102045.97;4965839;28;19946;-65
2023/08/23 07:47:51;;;;;;;;;;;;;;;27.59;44.51;102044.31;5013468;28;19958;-66
2023/08/23 07:50:16;;;;;;;;;;;;;;;27.60;44.64;102036.09;4996464;28;20537;-65
2023/08/23 07:52:41;;;;;;;;;;;;;;;27.62;44.55;102036.72;5014174;28;19944;-63
2023/08/23 07:55:11;;;;;;;;;;;;;;;27.47;44.86;102003.97;5002002;28;19986;-63
2023/08/23 07:57:38;;;;;;;;;;;;;;;27.67;44.30;102039.66;4984293;28;19957;-64
2023/08/23 08:00:04;;;;;;;;;;;;;;;27.67;44.35;102039.66;5009229;28;20043;-63
2023/08/23 08:02:31;;;;;;;;;;;;;;;27.68;44.45;102040.47;4956370;28;19954;-67
2023/08/23 08:04:57;;;;;;;;;;;;;;;27.69;44.38;102039.44;5016913;28;19955;-67
2023/08/23 08:07:22;;;;;;;;;;;;;;;27.68;44.24;102041.31;4957294;28;19961;-67
2023/08/23 08:09:47;;;;;;;;;;;;;;;27.69;44.42;102040.28;5015281;28;20023;-67
2023/08/23 08:12:13;;;;;;;;;;;;;;;27.58;44.50;102022.09;4956330;28;20040;-64
2023/08/23 08:14:38;;;;;;;;;;;;;;;27.74;44.32;102039.66;5018413;28;19940;-65
2023/08/23 08:17:04;;;;;;;;;;;;;;;27.74;44.20;102046.84;4999523;28;19949;-65
2023/08/23 08:19:29;;;;;;;;;;;;;;;27.74;44.29;102041.50;5024233;28;19935;-65
2023/08/23 08:21:54;;;;;;;;;;;;;;;27.78;44.30;102042.75;4962178;28;20021;-65
2023/08/23 08:24:20;;;;;;;;;;;;;;;27.79;44.31;102041.72;5013657;28;20038;-65
2023/08/23 08:26:45;;;;;;;;;;;;;;;27.80;44.25;102043.34;4959069;28;19961;-65
2023/08/23 08:29:11;;;;;;;;;;;;;;;27.81;44.22;102043.16;5010185;28;20004;-65
2023/08/23 08:31:39;;;;;;;;;;;;;;;27.81;44.32;102047.69;4958983;28;19947;-64
2023/08/23 08:34:05;;;;;;;;;;;;;;;27.83;44.22;102045.63;4998616;28;20059;-63
2023/08/23 08:36:30;;;;;;;;;;;;;;;27.82;44.08;102050.16;5016985;28;20936;-64
2023/08/23 08:38:56;;;;;;;;;;;;;;;27.84;44.14;102052.66;4959415;28;19948;-64
2023/08/23 08:41:21;;;;;;;;;;;;;;;27.85;44.06;102046.28;5009539;28;19967;-63
2023/08/23 08:43:47;;;;;;;;;;;;;;;27.86;44.19;102045.25;4960799;28;20501;-64
2023/08/23 08:46:13;;;;;;;;;;;;;;;27.88;44.07;102045.84;5016785;28;19966;-65
2023/08/23 08:48:38;;;;;;;;;;;;;;;27.86;43.98;102047.91;4954315;28;20295;-68
2023/08/23 08:51:07;;;;;;;;;;;;;;;27.87;43.96;102050.38;5020675;28;19979;-68
2023/08/23 08:53:33;;;;;;;;;;;;;;;27.90;44.02;102051.81;4960743;28;20437;-72
2023/08/23 08:55:59;;;;;;;;;;;;;;;27.88;43.75;102041.31;5015832;28;19940;-72
2023/08/23 08:58:25;;;;;;;;;;;;;;;27.90;44.07;102049.97;4998249;28;19939;-73
2023/08/23 09:00:52;;;;;;;;;;;;;;;27.90;43.91;102043.78;5010612;28;19930;-72
2023/08/23 09:03:18;;;;;;;;;;;;;;;27.91;43.97;102050.78;4954489;28;20037;-69
2023/08/23 09:05:50;;;;;;;;;;;;;;;27.93;43.93;102056.75;5017336;28;20055;-68
2023/08/23 09:08:16;;;;;;;;;;;;;;;27.91;43.97;102045.44;4959825;28;20360;-67
2023/08/23 09:10:41;;;;;;;;;;;;;;;27.90;43.82;102055.31;5013552;28;19981;-67
2023/08/23 09:13:07;;;;;;;;;;;;;;;27.92;44.01;102058.63;4956163;28;20027;-64
2023/08/23 09:15:32;;;;;;;;;;;;;;;27.91;43.75;102053.47;5013333;28;20704;-65
2023/08/23 09:17:59;;;;;;;;;;;;;;;27.93;43.82;102049.56;4993413;28;20019;-64
2023/08/23 09:20:24;;;;;;;;;;;;;;;27.94;43.47;102042.34;5009443;28;20028;-64
2023/08/23 09:22:51;;;;;;;;;;;;;;;27.96;43.77;102041.09;4970266;28;20328;-65
2023/08/23 09:25:17;;;;;;;;;;;;;;;27.95;43.79;102046.66;5018821;28;19942;-64
2023/08/23 09:27:42;;;;;;;;;;;;;;;27.96;43.88;102045.63;4957962;28;19968;-64
2023/08/23 09:30:08;;;;;;;;;;;;;;;27.95;43.67;102038.66;5020133;28;19931;-65
2023/08/23 09:32:33;;;;;;;;;;;;;;;27.97;43.94;102039.25;4961839;28;19942;-70
2023/08/23 09:35:15;;;;;;;;;;;;;;;27.96;44.20;102045.63;5013513;28;19944;-70
2023/08/23 09:37:41;;;;;;;;;;;;;;;27.98;44.24;102031.00;4962589;28;19985;-70
2023/08/23 09:40:14;;;;;;;;;;;;;;;27.87;44.26;102018.25;5022066;28;20413;-71
2023/08/23 09:42:40;;;;;;;;;;;;;;;27.94;44.47;102029.78;5003073;28;19968;-67
2023/08/23 09:45:06;;;;;;;;;;;;;;;27.94;44.30;102032.47;5017459;28;20389;-65
2023/08/23 09:47:32;;;;;;;;;;;;;;;27.95;44.57;102028.75;4955964;28;20495;-66
2023/08/23 09:49:59;;;;;;;;;;;;;;;27.95;44.46;102039.47;5014552;28;19949;-65
2023/08/23 09:52:30;;;;;;;;;;;;;;;27.96;44.49;102034.94;4962907;28;19948;-65
2023/08/23 09:55:08;;;;;;;;;;;;;;;27.95;44.61;102036.78;5007757;28;19943;-65
2023/08/23 09:57:34;;;;;;;;;;;;;;;27.95;44.77;102047.50;4957943;28;20053;-64
2023/08/23 10:00:00;;;;;;;;;;;;;;;27.95;44.67;102044.81;5011965;28;19984;-64
2023/08/23 10:02:26;;;;;;;;;;;;;;;27.98;44.59;102043.59;4955848;28;19947;-64
2023/08/23 10:04:52;;;;;;;;;;;;;;;27.96;44.70;102046.47;5003746;28;19995;-62
2023/08/23 10:07:18;;;;;;;;;;;;;;;27.80;44.59;102012.06;5013486;28;20018;-65
2023/08/23 10:09:45;;;;;;;;;;;;;;;27.97;44.76;102041.94;4962445;28;19942;-65
2023/08/23 10:12:11;;;;;;;;;;;;;;;27.96;44.83;102038.44;5013202;28;20501;-64
2023/08/23 10:14:39;;;;;;;;;;;;;;;27.99;44.74;102034.53;4968643;28;20001;-64
2023/08/23 10:17:05;;;;;;;;;;;;;;;27.98;44.55;102032.88;5022987;28;19931;-63
2023/08/23 10:19:31;;;;;;;;;;;;;;;27.97;44.79;102026.69;4966458;28;19946;-64
2023/08/23 10:21:57;;;;;;;;;;;;;;;27.96;44.89;102022.38;5020928;28;20384;-64
2023/08/23 10:24:29;;;;;;;;;;;;;;;27.98;44.78;102022.97;4993452;28;19950;-64
2023/08/23 10:26:54;;;;;;;;;;;;;;;27.98;44.81;102031.00;5014430;28;20030;-64
2023/08/23 10:29:26;;;;;;;;;;;;;;;27.98;44.60;102022.16;5003678;28;20375;-64
2023/08/23 10:31:54;;;;;;;;;;;;;;;27.99;44.85;102018.44;5012368;28;19935;-64
2023/08/23 10:34:23;;;;;;;;;;;;;;;27.97;44.89;102018.66;4966043;28;19973;-64
2023/08/23 10:36:49;;;;;;;;;;;;;;;27.96;45.01;102019.69;5019340;28;19938;-64
2023/08/23 10:39:14;;;;;;;;;;;;;;;27.97;44.88;102004.44;4962077;28;20419;-64
2023/08/23 10:41:40;;;;;;;;;;;;;;;27.97;44.82;102007.94;5017863;28;19941;-64
2023/08/23 10:44:15;;;;;;;;;;;;;;;27.96;44.85;102003.63;4966492;28;19945;-64
2023/08/23 10:46:44;;;;;;;;;;;;;;;27.99;44.79;102011.25;5016890;28;19974;-64
2023/08/23 10:49:11;;;;;;;;;;;;;;;27.97;44.94;102007.13;4943466;28;19952;-65
2023/08/23 10:51:41;;;;;;;;;;;;;;;27.99;44.67;102011.25;5015836;28;20377;-65
2023/08/23 10:54:07;;;;;;;;;;;;;;;27.98;44.74;102012.28;4964192;28;19946;-65
2023/08/23 10:56:33;;;;;;;;;;;;;;;27.86;44.76;101975.63;5019105;28;19959;-65
2023/08/23 10:58:58;;;;;;;;;;;;;;;27.99;44.79;101999.72;4961061;28;19959;-64
2023/08/23 11:01:24;;;;;;;;;;;;;;;28.00;44.57;101999.50;5017963;28;19942;-64
2023/08/23 11:03:49;;;;;;;;;;;;;;;28.00;44.92;101996.00;4959084;28;20040;-64
2023/08/23 11:06:14;;;;;;;;;;;;;;;28.00;44.79;101987.97;5021321;28;19985;-65
2023/08/23 11:08:42;;;;;;;;;;;;;;;28.00;44.59;101985.28;4963234;28;21408;-64
2023/08/23 11:11:08;;;;;;;;;;;;;;;28.05;44.79;101987.38;5020690;28;19939;-64
2023/08/23 11:13:33;;;;;;;;;;;;;;;28.01;44.87;101978.94;4962287;28;20273;-64
2023/08/23 11:15:59;;;;;;;;;;;;;;;28.01;44.65;101989.66;4997063;28;19961;-64
2023/08/23 11:18:24;;;;;;;;;;;;;;;28.02;44.60;101983.25;5017221;28;19976;-64
2023/08/23 11:20:49;;;;;;;;;;;;;;;28.00;44.80;101987.97;4962886;28;19950;-65
2023/08/23 11:23:15;;;;;;;;;;;;;;;27.99;44.81;101965.72;5008380;28;19962;-64
2023/08/23 11:25:40;;;;;;;;;;;;;;;28.02;44.88;101977.09;4969429;28;19959;-64
2023/08/23 11:28:06;;;;;;;;;;;;;;;27.99;44.81;101980.97;5017999;28;20059;-64
2023/08/23 11:30:32;;;;;;;;;;;;;;;27.99;44.72;101984.47;4960294;28;19987;-64
2023/08/23 11:32:57;;;;;;;;;;;;;;;27.99;44.67;101975.63;5016441;28;19992;-64
2023/08/23 11:35:23;;;;;;;;;;;;;;;27.96;44.88;101965.31;4992729;28;19956;-64
2023/08/23 11:37:49;;;;;;;;;;;;;;;27.99;44.86;101975.63;5013923;28;20017;-64
2023/08/23 11:40:14;;;;;;;;;;;;;;;27.99;44.81;101976.44;4964685;28;20401;-64
2023/08/23 11:42:40;;;;;;;;;;;;;;;28.00;44.93;101969.22;5022243;28;19948;-64
2023/08/23 11:45:06;;;;;;;;;;;;;;;28.00;44.87;101979.94;4966739;28;19987;-64
2023/08/23 11:47:33;;;;;;;;;;;;;;;27.96;44.92;101971.50;5013528;28;20045;-65
2023/08/23 11:49:58;;;;;;;;;;;;;;;27.98;45.01;101974.78;4960954;28;20932;-68
2023/08/23 11:52:24;;;;;;;;;;;;;;;27.98;44.98;101976.66;4996249;28;20023;-64
2023/08/23 11:54:53;;;;;;;;;;;;;;;27.96;44.85;101963.47;5016268;28;19944;-64
2023/08/23 11:57:18;;;;;;;;;;;;;;;27.98;44.97;101969.44;4959731;28;19948;-68
2023/08/23 11:59:44;;;;;;;;;;;;;;;27.98;44.96;101972.13;5007577;28;19946;-69
2023/08/23 12:02:10;;;;;;;;;;;;;;;27.98;45.00;101963.25;4960073;28;20285;-69
2023/08/23 12:04:39;;;;;;;;;;;;;;;27.97;44.93;101969.66;5015445;28;19959;-67
2023/08/23 12:07:05;;;;;;;;;;;;;;;27.98;44.84;101979.31;4962391;28;20412;-69
2023/08/23 12:09:32;;;;;;;;;;;;;;;27.97;45.07;101972.31;5013673;28;19940;-69
2023/08/23 12:11:59;;;;;;;;;;;;;;;27.98;44.72;101964.09;4991983;28;20586;-69
2023/08/23 12:14:26;;;;;;;;;;;;;;;27.97;44.90;101967.78;5011833;28;19937;-69
2023/08/23 12:16:52;;;;;;;;;;;;;;;27.99;45.04;101959.56;4995326;28;20678;-70
2023/08/23 12:19:17;;;;;;;;;;;;;;;28.00;44.92;101961.19;5016000;28;20018;-69
2023/08/23 12:21:42;;;;;;;;;;;;;;;27.84;45.11;101932.19;4956862;28;19953;-67
2023/08/23 12:24:08;;;;;;;;;;;;;;;28.03;44.92;101966.16;5011740;28;19974;-67
2023/08/23 12:26:33;;;;;;;;;;;;;;;28.00;44.92;101972.72;4985374;28;20320;-67
2023/08/23 12:28:59;;;;;;;;;;;;;;;28.02;44.94;101967.19;5009484;28;19968;-68
2023/08/23 12:31:24;;;;;;;;;;;;;;;27.99;44.78;101962.22;4953920;28;20041;-70